Time;durP1;ratioP1;P1;durP2;ratioP2;P2;SDS_P1;SDS_P2;PMS_P1;PMS_P2;Temp;Humidity;BMP_temperature;BMP_pressure;BME280_temperature;BME280_humidity;BME280_pressure;Samples;Min_cycle;Max_cycle;Signal;HPM_P1;HPM_P2
2023/12/21 00:00:10;;;;;;;190.18;67.38;;;;;;;1.41;100.00;99403.78;5067800;28;20305;-79
2023/12/21 00:02:35;;;;;;;98.78;36.08;;;;;;;1.49;100.00;99393.19;5067406;28;20036;-82
2023/12/21 00:05:01;;;;;;;123.03;37.42;;;;;;;1.79;100.00;99440.59;5065875;28;20460;-81
2023/12/21 00:07:26;;;;;;;131.45;56.50;;;;;;;1.56;100.00;99457.19;5075229;28;20037;-81
2023/12/21 00:09:53;;;;;;;108.95;48.35;;;;;;;1.48;100.00;99457.25;5066117;28;20033;-79
2023/12/21 00:12:18;;;;;;;94.10;48.85;;;;;;;1.29;100.00;99434.88;5064586;28;20021;-78
2023/12/21 00:14:44;;;;;;;111.35;55.70;;;;;;;1.47;100.00;99420.63;5060664;28;20111;-79
2023/12/21 00:17:09;;;;;;;103.13;46.25;;;;;;;1.43;100.00;99422.81;5056012;28;20390;-78
2023/12/21 00:19:34;;;;;;;90.55;49.40;;;;;;;1.33;100.00;99435.34;5052569;28;20044;-79
2023/12/21 00:22:00;;;;;;;102.35;42.55;;;;;;;1.52;100.00;99445.41;5052286;28;20040;-78
2023/12/21 00:24:25;;;;;;;125.30;42.95;;;;;;;1.09;100.00;99412.69;5033568;28;20115;-80
2023/12/21 00:26:51;;;;;;;112.72;48.58;;;;;;;1.36;100.00;99442.88;5059407;28;20017;-78
2023/12/21 00:29:16;;;;;;;82.05;40.05;;;;;;;1.19;100.00;99373.88;5071228;28;20037;-77
2023/12/21 00:31:41;;;;;;;84.55;38.08;;;;;;;1.18;100.00;99412.44;5053474;28;20489;-77
2023/12/21 00:34:07;;;;;;;87.72;37.47;;;;;;;1.06;100.00;99413.81;5071207;28;20401;-77
2023/12/21 00:36:32;;;;;;;125.10;39.03;;;;;;;1.07;100.00;99423.34;5053009;28;20523;-81
2023/12/21 00:38:58;;;;;;;99.97;36.45;;;;;;;1.15;100.00;99433.81;5053140;28;20211;-78
2023/12/21 00:41:23;;;;;;;98.82;37.53;;;;;;;1.40;100.00;99384.53;5052904;28;20039;-77
2023/12/21 00:43:51;;;;;;;87.38;37.47;;;;;;;1.02;100.00;99404.66;5053273;28;20025;-77
2023/12/21 00:46:17;;;;;;;87.32;37.55;;;;;;;0.74;100.00;99363.16;5070786;28;20025;-77
2023/12/21 00:48:42;;;;;;;145.88;40.10;;;;;;;0.97;100.00;99365.00;5052749;28;20025;-77
2023/12/21 00:51:09;;;;;;;96.75;38.60;;;;;;;0.69;100.00;99369.91;5070769;28;20405;-80
2023/12/21 00:53:34;;;;;;;82.57;37.13;;;;;;;0.56;100.00;99381.78;5070618;28;20028;-77
2023/12/21 00:56:00;;;;;;;97.63;34.00;;;;;;;0.49;100.00;99387.88;5074437;28;20025;-76
2023/12/21 00:58:25;;;;;;;113.60;34.85;;;;;;;0.68;100.00;99412.91;5040822;28;20061;-77
2023/12/21 01:00:51;;;;;;;79.35;32.88;;;;;;;0.39;100.00;99360.06;5054810;28;20025;-77
2023/12/21 01:03:16;;;;;;;89.13;33.35;;;;;;;0.80;100.00;99425.47;5036518;28;20478;-77
2023/12/21 01:05:41;;;;;;;74.60;32.70;;;;;;;0.57;100.00;99393.06;5054578;28;20144;-77
2023/12/21 01:08:07;;;;;;;70.40;30.95;;;;;;;0.76;100.00;99433.84;5054416;28;20420;-78
2023/12/21 01:10:33;;;;;;;62.67;31.27;;;;;;;0.90;100.00;99421.78;5054244;28;20107;-77
2023/12/21 01:12:59;;;;;;;72.40;30.88;;;;;;;0.71;100.00;99394.16;5054243;28;20557;-76
2023/12/21 01:15:24;;;;;;;72.82;30.20;;;;;;;0.62;100.00;99398.66;5054411;28;20033;-77
2023/12/21 01:17:50;;;;;;;88.20;33.50;;;;;;;0.55;100.00;99384.56;5062043;28;20695;-77
2023/12/21 01:20:16;;;;;;;90.38;33.55;;;;;;;1.11;100.00;99402.81;5074327;28;20032;-77
2023/12/21 01:22:41;;;;;;;80.50;33.35;;;;;;;1.02;100.00;99411.72;5074278;28;20029;-79
2023/12/21 01:25:07;;;;;;;93.43;35.90;;;;;;;1.29;100.00;99418.28;5073874;28;20135;-77
2023/12/21 01:27:32;;;;;;;111.25;40.30;;;;;;;1.30;100.00;99409.44;5049582;28;20398;-77
2023/12/21 01:29:58;;;;;;;121.22;37.85;;;;;;;1.08;100.00;99390.84;5036093;28;20098;-78
2023/12/21 01:32:23;;;;;;;98.53;35.92;;;;;;;0.87;100.00;99361.78;5053962;28;20045;-77
2023/12/21 01:34:48;;;;;;;82.43;33.83;;;;;;;0.78;100.00;99390.69;5036213;28;20033;-78
2023/12/21 01:37:14;;;;;;;65.88;34.35;;;;;;;0.52;100.00;99353.44;5053971;28;20021;-78
2023/12/21 01:39:39;;;;;;;99.15;36.28;;;;;;;1.13;100.00;99399.03;5054629;28;20041;-81
2023/12/21 01:42:05;;;;;;;72.18;35.28;;;;;;;0.84;100.00;99357.69;5055930;28;20031;-79
2023/12/21 01:44:30;;;;;;;78.85;36.10;;;;;;;0.99;100.00;99378.78;5036004;28;20025;-78
2023/12/21 01:46:56;;;;;;;68.65;34.95;;;;;;;0.91;100.00;99356.00;5037557;28;20025;-76
2023/12/21 01:49:21;;;;;;;59.22;35.65;;;;;;;0.67;100.00;99324.66;5053793;28;20111;-76
2023/12/21 01:51:47;;;;;;;66.60;34.28;;;;;;;0.41;100.00;99338.91;5053665;28;20025;-77
2023/12/21 01:54:13;;;;;;;69.63;34.50;;;;;;;0.39;100.00;99349.56;5053626;28;20029;-76
2023/12/21 01:56:39;;;;;;;58.08;33.03;;;;;;;0.30;100.00;99344.50;5053342;28;20032;-78
2023/12/21 01:59:04;;;;;;;54.13;33.53;;;;;;;0.57;100.00;99340.59;5053517;28;20040;-77
2023/12/21 02:01:30;;;;;;;60.53;38.30;;;;;;;1.13;100.00;99375.41;5053285;28;20075;-77
2023/12/21 02:03:56;;;;;;;54.90;36.13;;;;;;;0.79;100.00;99354.75;5053528;28;20033;-77
2023/12/21 02:06:22;;;;;;;58.78;38.10;;;;;;;1.05;100.00;99375.44;5034428;28;20064;-77
2023/12/21 02:08:47;;;;;;;60.03;38.10;;;;;;;0.90;100.00;99324.66;5059992;28;20398;-77
2023/12/21 02:11:13;;;;;;;57.53;36.28;;;;;;;0.89;100.00;99344.03;5073414;28;20035;-78
2023/12/21 02:13:38;;;;;;;51.67;32.33;;;;;;;0.77;100.00;99347.06;5073386;28;20016;-77
2023/12/21 02:16:07;;;;;;;51.60;33.85;;;;;;;1.13;100.00;99399.03;5072934;28;20030;-77
2023/12/21 02:18:32;;;;;;;48.58;31.65;;;;;;;1.27;100.00;99391.38;5073114;28;20040;-77
2023/12/21 02:20:58;;;;;;;50.13;32.65;;;;;;;0.97;100.00;99325.63;5072972;28;20025;-77
2023/12/21 02:23:27;;;;;;;59.15;36.88;;;;;;;1.23;100.00;99350.69;5073219;28;20024;-78
2023/12/21 02:25:53;;;;;;;56.30;33.50;;;;;;;0.89;100.00;99302.03;5073096;28;20032;-77
2023/12/21 02:28:18;;;;;;;54.90;34.65;;;;;;;1.11;100.00;99343.25;5055135;28;20098;-77
2023/12/21 02:30:44;;;;;;;57.95;36.47;;;;;;;0.92;100.00;99314.81;5072908;28;20662;-77
2023/12/21 02:33:09;;;;;;;60.60;39.28;;;;;;;1.27;100.00;99341.47;5055119;28;20032;-78
2023/12/21 02:35:34;;;;;;;65.40;39.95;;;;;;;1.17;100.00;99333.84;5054953;28;20037;-76
2023/12/21 02:38:00;;;;;;;65.25;39.10;;;;;;;0.94;100.00;99325.94;5046808;28;20032;-77
2023/12/21 02:40:25;;;;;;;79.88;43.35;;;;;;;1.17;100.00;99337.28;5052736;28;20029;-77
2023/12/21 02:42:51;;;;;;;71.00;41.33;;;;;;;1.25;100.00;99346.91;5052696;28;20033;-76
2023/12/21 02:45:16;;;;;;;105.35;74.28;;;;;;;1.07;100.00;99330.66;5052825;28;20431;-77
2023/12/21 02:47:41;;;;;;;132.90;97.00;;;;;;;0.87;100.00;99338.97;5052290;28;20025;-79
2023/12/21 02:50:07;;;;;;;67.57;46.50;;;;;;;0.86;100.00;99326.84;5063998;28;20025;-79
2023/12/21 02:52:32;;;;;;;163.32;107.95;;;;;;;0.75;100.00;99338.53;5054549;28;20017;-78
2023/12/21 02:54:58;;;;;;;106.13;68.05;;;;;;;0.90;100.00;99341.25;5072635;28;20107;-77
2023/12/21 02:57:23;;;;;;;71.03;47.33;;;;;;;0.74;100.00;99342.16;5072155;28;20024;-78
2023/12/21 02:59:49;;;;;;;75.75;52.80;;;;;;;0.45;100.00;99307.88;5072112;28;20052;-77
2023/12/21 03:02:15;;;;;;;69.68;41.63;;;;;;;0.88;100.00;99310.91;5072406;28;20103;-77
2023/12/21 03:04:40;;;;;;;63.72;38.75;;;;;;;0.57;100.00;99304.72;5072270;28;20057;-78
2023/12/21 03:07:05;;;;;;;58.13;36.20;;;;;;;0.53;100.00;99307.84;5072286;28;20082;-77
2023/12/21 03:09:31;;;;;;;58.80;34.25;;;;;;;0.86;100.00;99339.13;5051070;28;20029;-77
2023/12/21 03:11:56;;;;;;;56.55;34.97;;;;;;;0.97;100.00;99315.13;5052292;28;20033;-78
2023/12/21 03:14:22;;;;;;;49.78;31.83;;;;;;;0.86;100.00;99336.50;5052324;28;20060;-80
2023/12/21 03:16:49;;;;;;;52.05;33.70;;;;;;;0.78;100.00;99317.22;5051833;28;20461;-77
2023/12/21 03:19:14;;;;;;;59.75;37.33;;;;;;;0.86;100.00;99320.75;5052326;28;20029;-77
2023/12/21 03:21:39;;;;;;;66.50;41.78;;;;;;;0.69;100.00;99297.25;5070994;28;20035;-77
2023/12/21 03:24:05;;;;;;;271.00;141.88;;;;;;;0.70;100.00;99319.06;5071878;28;20080;-77
2023/12/21 03:26:31;;;;;;;86.65;51.70;;;;;;;0.47;100.00;99309.34;5071787;28;20496;-78
2023/12/21 03:28:57;;;;;;;85.05;51.60;;;;;;;0.06;100.00;99287.72;5056824;28;20025;-77
2023/12/21 03:31:22;;;;;;;51.72;34.13;;;;;;;-0.07;100.00;99302.19;5033762;28;20037;-78
2023/12/21 03:33:48;;;;;;;48.35;35.50;;;;;;;0.01;100.00;99313.66;5051740;28;20037;-78
2023/12/21 03:36:13;;;;;;;48.03;33.47;;;;;;;-0.11;100.00;99264.19;5033450;28;20025;-77
2023/12/21 03:38:39;;;;;;;49.42;33.53;;;;;;;0.35;100.00;99298.44;5063828;28;20081;-77
2023/12/21 03:41:04;;;;;;;54.40;34.80;;;;;;;0.58;100.00;99311.56;5071687;28;20036;-78
2023/12/21 03:43:30;;;;;;;56.58;36.92;;;;;;;0.61;100.00;99315.66;5071559;28;20074;-79
2023/12/21 03:45:55;;;;;;;47.88;32.30;;;;;;;0.32;100.00;99282.22;5071524;28;20481;-79
2023/12/21 03:48:21;;;;;;;67.03;46.65;;;;;;;0.21;100.00;99261.63;5071825;28;20448;-79
2023/12/21 03:50:46;;;;;;;44.95;28.45;;;;;;;0.32;100.00;99285.63;5071595;28;20031;-79
2023/12/21 03:53:14;;;;;;;53.92;35.00;;;;;;;0.16;100.00;99307.53;5071477;28;20089;-81
2023/12/21 03:55:39;;;;;;;62.38;39.03;;;;;;;0.50;100.00;99323.94;5053368;28;20515;-78
2023/12/21 03:58:05;;;;;;;254.63;141.52;;;;;;;0.05;100.00;99252.03;5071151;28;20114;-78
2023/12/21 04:00:30;;;;;;;131.95;83.18;;;;;;;-0.07;100.00;99269.94;5050333;28;20402;-77
2023/12/21 04:02:55;;;;;;;57.03;38.42;;;;;;;0.37;100.00;99320.06;5051303;28;20473;-81
2023/12/21 04:05:21;;;;;;;101.15;63.90;;;;;;;0.09;100.00;99293.47;5050960;28;20049;-78
2023/12/21 04:07:46;;;;;;;132.55;81.25;;;;;;;0.29;100.00;99322.72;5033348;28;20021;-78
2023/12/21 04:10:12;;;;;;;111.22;73.60;;;;;;;0.36;100.00;99299.25;5051037;28;20114;-78
2023/12/21 04:12:37;;;;;;;56.20;33.35;;;;;;;0.24;100.00;99279.63;5051162;28;20490;-78
2023/12/21 04:15:03;;;;;;;55.55;31.77;;;;;;;0.40;100.00;99305.78;5051057;28;20037;-80
2023/12/21 04:17:28;;;;;;;53.78;30.90;;;;;;;-0.22;100.00;99235.75;5033299;28;20017;-78
2023/12/21 04:19:56;;;;;;;49.28;31.05;;;;;;;-0.14;100.00;99275.03;5051001;28;20029;-78
2023/12/21 04:22:22;;;;;;;55.08;32.50;;;;;;;-0.38;100.00;99251.53;5033178;28;20025;-78
2023/12/21 04:24:47;;;;;;;50.80;31.33;;;;;;;-0.57;100.00;99274.50;5033242;28;20086;-78
2023/12/21 04:27:13;;;;;;;50.20;31.13;;;;;;;-0.74;100.00;99268.44;5033027;28;20036;-79
2023/12/21 04:29:38;;;;;;;52.15;30.88;;;;;;;-0.55;100.00;99290.00;5050309;28;20053;-78
2023/12/21 04:32:05;;;;;;;65.97;40.20;;;;;;;-0.77;100.00;99284.50;5032398;28;20114;-78
2023/12/21 04:34:31;;;;;;;72.20;45.75;;;;;;;-1.13;100.00;99257.81;5032780;28;20132;-78
2023/12/21 04:36:56;;;;;;;51.95;32.17;;;;;;;-1.08;100.00;99266.03;5050739;28;20103;-78
2023/12/21 04:39:22;;;;;;;50.22;30.73;;;;;;;-1.01;100.00;99267.00;5032938;28;20471;-79
2023/12/21 04:41:47;;;;;;;49.95;30.83;;;;;;;-0.59;100.00;99286.94;5057732;28;20039;-80
2023/12/21 04:44:13;;;;;;;47.42;29.90;;;;;;;-0.57;100.00;99292.81;5042677;28;20064;-79
2023/12/21 04:46:38;;;;;;;46.35;28.52;;;;;;;-0.98;100.00;99250.97;5050570;28;20028;-78
2023/12/21 04:49:03;;;;;;;59.58;34.60;;;;;;;-0.57;100.00;99261.41;5050750;28;20091;-78
2023/12/21 04:51:29;;;;;;;67.43;43.92;;;;;;;-0.36;100.00;99291.47;5032747;28;20116;-78
2023/12/21 04:53:54;;;;;;;51.47;32.15;;;;;;;-0.25;100.00;99319.94;5032834;28;20025;-79
2023/12/21 04:56:20;;;;;;;54.00;34.25;;;;;;;-0.33;100.00;99275.41;5050438;28;20032;-79
2023/12/21 04:58:45;;;;;;;50.92;34.38;;;;;;;-0.09;100.00;99304.16;5050141;28;20470;-78
2023/12/21 05:01:10;;;;;;;63.38;39.78;;;;;;;-0.09;100.00;99280.56;5050720;28;20062;-79
2023/12/21 05:03:36;;;;;;;65.75;44.00;;;;;;;0.16;100.00;99314.56;5069119;28;20024;-79
2023/12/21 05:06:02;;;;;;;61.88;41.22;;;;;;;0.13;100.00;99307.06;5070448;28;20105;-77
2023/12/21 05:08:28;;;;;;;67.22;39.55;;;;;;;0.10;100.00;99320.47;5044496;28;20477;-78
2023/12/21 05:10:55;;;;;;;61.83;39.83;;;;;;;0.19;100.00;99307.19;5032470;28;20489;-78
2023/12/21 05:13:20;;;;;;;58.53;36.83;;;;;;;-0.03;100.00;99279.91;5065007;28;20028;-77
2023/12/21 05:15:45;;;;;;;59.45;37.97;;;;;;;-0.02;100.00;99305.13;5052035;28;20038;-81
2023/12/21 05:18:11;;;;;;;58.22;36.42;;;;;;;0.09;100.00;99322.28;5070505;28;20052;-79
2023/12/21 05:20:36;;;;;;;71.20;47.42;;;;;;;-0.31;100.00;99274.25;5070387;28;20447;-77
2023/12/21 05:23:02;;;;;;;91.30;59.95;;;;;;;-0.10;100.00;99312.19;5052345;28;20042;-78
2023/12/21 05:25:27;;;;;;;88.82;58.13;;;;;;;-0.40;100.00;99293.59;5052410;28;20060;-78
2023/12/21 05:27:53;;;;;;;85.75;58.60;;;;;;;-0.19;100.00;99303.53;5052428;28;20020;-78
2023/12/21 05:30:19;;;;;;;89.60;52.67;;;;;;;0.10;100.00;99307.38;5052306;28;20485;-78
2023/12/21 05:32:44;;;;;;;83.22;52.15;;;;;;;-0.03;100.00;99302.69;5063452;28;20028;-77
2023/12/21 05:35:10;;;;;;;76.70;48.05;;;;;;;-0.30;100.00;99306.53;5050369;28;20035;-77
2023/12/21 05:37:35;;;;;;;67.18;42.60;;;;;;;-0.29;100.00;99308.97;5049715;28;20033;-76
2023/12/21 05:40:01;;;;;;;71.80;43.05;;;;;;;-0.48;100.00;99325.88;5031931;28;20068;-77
2023/12/21 05:42:26;;;;;;;64.43;39.58;;;;;;;-0.81;100.00;99283.19;5052243;28;20082;-77
2023/12/21 05:44:52;;;;;;;59.20;37.40;;;;;;;-0.83;100.00;99330.47;5053125;28;20032;-76
2023/12/21 05:47:17;;;;;;;58.45;38.20;;;;;;;-0.58;100.00;99327.84;5035415;28;20067;-78
2023/12/21 05:49:43;;;;;;;67.63;42.55;;;;;;;-0.36;100.00;99328.16;5053495;28;20048;-76
2023/12/21 05:52:08;;;;;;;65.57;39.95;;;;;;;-0.80;100.00;99310.97;5035840;28;20059;-80
2023/12/21 05:54:34;;;;;;;63.70;40.13;;;;;;;-0.44;100.00;99342.06;5053640;28;20425;-77
2023/12/21 05:57:01;;;;;;;89.80;51.20;;;;;;;-0.33;100.00;99301.59;5053196;28;20031;-77
2023/12/21 05:59:27;;;;;;;100.75;56.63;;;;;;;-0.11;100.00;99300.91;5053055;28;20036;-76
2023/12/21 06:01:52;;;;;;;116.13;68.28;;;;;;;0.05;100.00;99301.84;5053099;28;20032;-78
2023/12/21 06:04:18;;;;;;;93.72;54.65;;;;;;;0.30;100.00;99344.50;5052575;28;20497;-77
2023/12/21 06:06:47;;;;;;;98.88;62.13;;;;;;;0.29;100.00;99346.31;5053232;28;20414;-77
2023/12/21 06:09:13;;;;;;;84.28;52.25;;;;;;;0.28;100.00;99325.50;5040032;28;20033;-77
2023/12/21 06:11:39;;;;;;;67.82;41.10;;;;;;;0.26;100.00;99323.03;5033225;28;20029;-78
2023/12/21 06:14:04;;;;;;;67.13;37.67;;;;;;;0.27;100.00;99324.69;5054059;28;20052;-78
2023/12/21 06:16:29;;;;;;;66.63;39.28;;;;;;;0.24;100.00;99345.19;5072836;28;20107;-77
2023/12/21 06:18:55;;;;;;;63.78;40.50;;;;;;;0.46;100.00;99359.38;5044870;28;20028;-77
2023/12/21 06:21:22;;;;;;;69.95;41.08;;;;;;;0.35;100.00;99365.81;5053143;28;20402;-77
2023/12/21 06:23:47;;;;;;;69.15;41.50;;;;;;;0.37;100.00;99369.91;5041778;28;20024;-78
2023/12/21 06:26:13;;;;;;;73.10;41.63;;;;;;;0.45;100.00;99378.69;5072742;28;20036;-77
2023/12/21 06:28:38;;;;;;;62.30;38.45;;;;;;;-0.26;100.00;99353.19;5073153;28;20036;-77
2023/12/21 06:31:04;;;;;;;62.33;37.63;;;;;;;0.21;100.00;99383.06;5073179;28;20481;-77
2023/12/21 06:33:30;;;;;;;66.40;38.28;;;;;;;0.49;100.00;99369.50;5054770;28;20020;-79
2023/12/21 06:35:55;;;;;;;60.20;37.05;;;;;;;0.17;100.00;99352.91;5054833;28;20029;-78
2023/12/21 06:38:21;;;;;;;60.40;36.42;;;;;;;0.35;100.00;99329.91;5054580;28;20036;-78
2023/12/21 06:40:46;;;;;;;56.45;35.03;;;;;;;0.67;100.00;99362.19;5072534;28;20116;-79
2023/12/21 06:43:12;;;;;;;86.47;54.30;;;;;;;0.84;100.00;99362.09;5072765;28;20051;-81
2023/12/21 06:45:39;;;;;;;105.93;65.13;;;;;;;0.99;100.00;99339.38;5072823;28;20105;-77
2023/12/21 06:48:05;;;;;;;99.13;62.77;;;;;;;1.18;100.00;99365.16;5072910;28;20037;-78
2023/12/21 06:50:30;;;;;;;73.88;46.45;;;;;;;1.53;100.00;99393.66;5072782;28;20270;-78
2023/12/21 06:52:56;;;;;;;69.88;42.85;;;;;;;1.52;100.00;99356.03;5072015;28;20036;-78
2023/12/21 06:55:21;;;;;;;61.95;38.35;;;;;;;1.83;100.00;99363.00;5057699;28;20524;-78
2023/12/21 06:57:46;;;;;;;58.15;35.33;;;;;;;1.94;100.00;99364.34;5052528;28;20029;-79
2023/12/21 07:00:12;;;;;;;55.63;35.60;;;;;;;1.87;100.00;99329.28;5052318;28;20052;-79
2023/12/21 07:02:38;;;;;;;58.08;37.53;;;;;;;2.10;100.00;99337.06;5034596;28;20064;-78
2023/12/21 07:05:03;;;;;;;50.47;33.67;;;;;;;2.58;100.00;99379.59;5051857;28;20509;-78
2023/12/21 07:07:30;;;;;;;57.17;38.28;;;;;;;2.85;100.00;99393.06;5052189;28;20025;-78
2023/12/21 07:09:55;;;;;;;92.35;59.25;;;;;;;2.88;100.00;99397.97;5034130;28;20037;-79
2023/12/21 07:12:20;;;;;;;77.95;48.83;;;;;;;3.03;100.00;99369.78;5052329;28;20032;-79
2023/12/21 07:14:49;;;;;;;58.40;35.60;;;;;;;3.35;100.00;99388.72;5034389;28;20382;-79
2023/12/21 07:17:15;;;;;;;42.60;26.30;;;;;;;3.09;100.00;99308.44;5034189;28;20027;-80
2023/12/21 07:19:41;;;;;;;42.55;28.10;;;;;;;3.49;100.00;99358.84;5051924;28;20032;-78
2023/12/21 07:22:06;;;;;;;45.20;25.95;;;;;;;3.76;100.00;99380.16;5034171;28;20486;-84
2023/12/21 07:24:33;;;;;;;64.60;39.55;;;;;;;3.94;100.00;99398.97;5053700;28;20033;-80
2023/12/21 07:26:58;;;;;;;64.05;39.60;;;;;;;3.96;100.00;99396.13;5051798;28;20029;-79
2023/12/21 07:29:23;;;;;;;91.70;53.15;;;;;;;3.82;100.00;99379.38;5051750;28;20032;-80
2023/12/21 07:31:49;;;;;;;68.20;44.88;;;;;;;3.35;100.00;99378.19;5033905;28;20021;-79
2023/12/21 07:34:14;;;;;;;70.80;44.22;;;;;;;3.28;100.00;99387.84;5051856;28;20082;-79
2023/12/21 07:36:39;;;;;;;69.00;42.83;;;;;;;3.33;100.00;99382.81;5033725;28;20040;-78
2023/12/21 07:39:05;;;;;;;66.95;43.55;;;;;;;3.48;100.00;99373.03;5051793;28;20413;-78
2023/12/21 07:41:31;;;;;;;63.85;41.63;;;;;;;3.70;100.00;99378.28;5033647;28;20086;-77
2023/12/21 07:43:57;;;;;;;57.42;36.80;;;;;;;4.02;100.00;99398.84;5051395;28;20108;-77
2023/12/21 07:46:23;;;;;;;82.28;53.75;;;;;;;3.79;100.00;99369.22;5048199;28;20043;-78
2023/12/21 07:48:49;;;;;;;88.70;53.47;;;;;;;4.29;100.00;99401.63;5071548;28;20078;-76
2023/12/21 07:51:15;;;;;;;103.53;73.03;;;;;;;4.54;100.00;99398.53;5053623;28;20016;-77
2023/12/21 07:53:40;;;;;;;99.75;68.47;;;;;;;4.69;100.00;99387.81;5071503;28;20052;-81
2023/12/21 07:56:06;;;;;;;67.47;45.28;;;;;;;5.19;100.00;99401.56;5071084;28;20067;-77
2023/12/21 07:58:32;;;;;;;33.20;21.08;;;;;;;5.53;100.00;99363.59;5067133;28;20040;-76
2023/12/21 08:00:57;;;;;;;29.88;17.20;;;;;;;6.26;100.00;99415.69;5051204;28;20021;-77
2023/12/21 08:03:23;;;;;;;26.05;16.85;;;;;;;6.11;100.00;99383.31;5051095;28;20037;-75
2023/12/21 08:05:48;;;;;;;29.83;17.50;;;;;;;6.39;100.00;99409.53;5050672;28;20132;-77
2023/12/21 08:08:13;;;;;;;24.20;16.27;;;;;;;6.59;100.00;99417.44;5052599;28;20083;-80
2023/12/21 08:10:39;;;;;;;27.15;16.75;;;;;;;6.74;100.00;99404.75;5070717;28;20089;-76
2023/12/21 08:13:07;;;;;;;29.63;18.88;;;;;;;7.14;100.00;99415.16;5070915;28;20028;-76
2023/12/21 08:15:33;;;;;;;29.60;17.88;;;;;;;7.11;100.00;99425.38;5070488;28;20551;-77
2023/12/21 08:17:59;;;;;;;26.30;16.95;;;;;;;7.35;100.00;99434.44;5052732;28;20028;-75
2023/12/21 08:20:25;;;;;;;25.52;15.98;;;;;;;7.54;100.00;99414.94;5067774;28;20119;-77
2023/12/21 08:22:50;;;;;;;27.23;17.17;;;;;;;7.56;100.00;99423.50;5049979;28;20538;-75
2023/12/21 08:25:16;;;;;;;29.95;17.17;;;;;;;7.98;100.00;99437.03;5050363;28;20032;-77
2023/12/21 08:27:42;;;;;;;26.45;15.80;;;;;;;7.89;100.00;99406.50;5055508;28;20059;-77
2023/12/21 08:30:08;;;;;;;21.63;13.50;;;;;;;8.23;100.00;99429.06;5032602;28;20025;-76
2023/12/21 08:32:34;;;;;;;22.02;13.48;;;;;;;8.23;99.63;99407.00;5050222;28;20018;-77
2023/12/21 08:35:00;;;;;;;21.35;13.77;;;;;;;8.33;99.36;99433.06;5050528;28;20037;-77
2023/12/21 08:37:25;;;;;;;21.38;13.60;;;;;;;8.42;100.00;99411.34;5056615;28;20444;-80
2023/12/21 08:39:50;;;;;;;21.15;13.25;;;;;;;8.41;99.48;99392.94;5050190;28;20486;-75
2023/12/21 08:42:16;;;;;;;30.02;15.50;;;;;;;8.82;98.06;99410.84;5050367;28;20033;-77
2023/12/21 08:44:41;;;;;;;32.58;18.27;;;;;;;9.23;93.87;99406.69;5050420;28;20025;-78
2023/12/21 08:47:07;;;;;;;26.13;14.65;;;;;;;9.29;92.65;99377.53;5061110;28;20032;-77
2023/12/21 08:49:32;;;;;;;27.10;15.00;;;;;;;9.79;87.54;99379.81;5059014;28;20519;-76
2023/12/21 08:51:58;;;;;;;27.10;14.15;;;;;;;9.58;90.12;99387.31;5050110;28;20708;-76
2023/12/21 08:54:23;;;;;;;16.85;10.63;;;;;;;9.62;87.08;99377.84;5050154;28;20025;-76
2023/12/21 08:56:52;;;;;;;38.83;20.17;;;;;;;9.53;90.10;99370.41;5056714;28;20081;-75
2023/12/21 08:59:18;;;;;;;17.90;11.27;;;;;;;9.89;86.08;99374.75;5070568;28;20135;-76
2023/12/21 09:01:43;;;;;;;29.45;15.05;;;;;;;10.21;87.89;99364.50;5069770;28;20181;-76
2023/12/21 09:04:09;;;;;;;14.93;8.57;;;;;;;9.62;81.88;99377.84;5051076;28;20123;-75
2023/12/21 09:06:35;;;;;;;16.85;9.60;;;;;;;9.71;83.57;99374.84;5069367;28;20512;-75
2023/12/21 09:09:02;;;;;;;17.60;9.63;;;;;;;9.53;84.00;99389.84;5069200;28;20029;-77
2023/12/21 09:11:28;;;;;;;17.13;9.98;;;;;;;9.83;83.44;99357.81;5069724;28;20021;-76
2023/12/21 09:13:55;;;;;;;16.63;10.32;;;;;;;9.94;83.79;99368.72;5052071;28;20072;-78
2023/12/21 09:16:21;;;;;;;14.38;8.60;;;;;;;9.53;81.39;99336.63;5072159;28;20021;-76
2023/12/21 09:18:47;;;;;;;15.35;9.25;;;;;;;9.81;82.35;99385.72;5073099;28;20719;-76
2023/12/21 09:21:12;;;;;;;15.13;9.25;;;;;;;10.03;80.70;99373.47;5055676;28;20024;-77
2023/12/21 09:23:41;;;;;;;17.27;10.68;;;;;;;10.12;82.50;99349.13;5073467;28;20016;-76
2023/12/21 09:26:10;;;;;;;21.67;10.93;;;;;;;10.43;83.12;99342.63;5073906;28;20025;-79
2023/12/21 09:28:36;;;;;;;20.20;12.52;;;;;;;11.00;77.68;99339.19;5073541;28;20036;-76
2023/12/21 09:31:03;;;;;;;16.50;10.00;;;;;;;11.08;76.64;99357.47;5073708;28;20025;-76
2023/12/21 09:33:31;;;;;;;20.35;12.07;;;;;;;11.26;79.62;99354.59;5073865;28;20033;-76
2023/12/21 09:35:58;;;;;;;;;;;;;;;11.00;74.65;99360.53;5074243;28;20020;-80
2023/12/21 09:38:24;;;;;;;19.15;11.95;;;;;;;11.69;75.60;99354.19;5073625;28;20362;-76
2023/12/21 09:40:49;;;;;;;22.52;13.73;;;;;;;11.43;74.23;99356.47;5073491;28;20082;-76
2023/12/21 09:43:17;;;;;;;18.90;10.40;;;;;;;11.95;74.06;99350.91;5073577;28;20020;-77
2023/12/21 09:45:48;;;;;;;15.18;9.80;;;;;;;11.75;71.96;99335.34;5073330;28;20041;-76
2023/12/21 09:48:17;;;;;;;12.38;8.48;;;;;;;11.58;69.59;99345.22;5055190;28;20040;-77
2023/12/21 09:50:44;;;;;;;13.85;9.50;;;;;;;11.36;71.47;99310.41;5054087;28;20108;-78
2023/12/21 09:53:13;;;;;;;15.35;9.45;;;;;;;11.63;69.91;99348.78;5053250;28;20496;-81
2023/12/21 09:55:41;;;;;;;13.93;8.85;;;;;;;11.48;71.71;99351.19;5035500;28;20029;-76
2023/12/21 09:58:09;;;;;;;;;;;;;;;11.72;68.94;99351.03;5060991;28;20090;-76
2023/12/21 10:00:35;;;;;;;13.57;8.35;;;;;;;11.91;70.65;99317.72;5054615;28;20432;-78
2023/12/21 10:03:00;;;;;;;14.32;9.35;;;;;;;12.19;67.17;99329.31;5053337;28;20117;-77
2023/12/21 10:05:25;;;;;;;12.88;7.75;;;;;;;11.80;67.96;99307.91;5052932;28;20186;-78
2023/12/21 10:07:51;;;;;;;15.30;8.95;;;;;;;12.68;68.27;99348.09;5052924;28;20059;-78
2023/12/21 10:10:18;;;;;;;14.48;8.68;;;;;;;13.48;60.89;99297.47;5053024;28;20033;-77
2023/12/21 10:12:43;;;;;;;13.90;9.25;;;;;;;13.75;62.24;99313.47;5052857;28;20498;-78
2023/12/21 10:15:10;;;;;;;14.25;8.23;;;;;;;14.04;57.31;99332.69;5052728;28;20025;-77
2023/12/21 10:17:37;;;;;;;15.68;8.77;;;;;;;13.09;62.83;99307.56;5034459;28;20024;-77
2023/12/21 10:20:04;;;;;;;13.77;8.20;;;;;;;13.09;63.92;99300.31;5045587;28;20517;-78
2023/12/21 10:22:29;;;;;;;13.90;8.27;;;;;;;12.58;63.00;99289.13;5034279;28;20017;-76
2023/12/21 10:24:55;;;;;;;12.60;8.52;;;;;;;12.66;63.27;99276.09;5052393;28;20029;-75
2023/12/21 10:27:22;;;;;;;13.25;7.95;;;;;;;12.73;61.09;99269.75;5051147;28;20025;-77
2023/12/21 10:29:55;;;;;;;13.02;8.45;;;;;;;12.79;65.02;99290.13;5068821;28;20165;-76
2023/12/21 10:32:21;;;;;;;13.65;7.70;;;;;;;12.99;66.81;99260.09;5072410;28;20043;-76
2023/12/21 10:34:47;;;;;;;12.95;8.90;;;;;;;13.42;62.16;99279.75;5072195;28;20822;-77
2023/12/21 10:37:15;;;;;;;14.43;8.52;;;;;;;13.40;61.94;99268.47;5054228;28;20320;-77
2023/12/21 10:39:41;;;;;;;11.73;7.20;;;;;;;13.55;61.21;99270.47;5040525;28;20036;-77
2023/12/21 10:42:06;;;;;;;15.45;9.27;;;;;;;13.57;63.00;99254.94;5053172;28;20029;-77
2023/12/21 10:44:32;;;;;;;12.60;8.40;;;;;;;13.57;62.52;99246.91;5035264;28;20064;-76
2023/12/21 10:46:59;;;;;;;13.30;8.27;;;;;;;13.31;62.06;99252.09;5034611;28;20061;-76
2023/12/21 10:49:27;;;;;;;12.95;9.02;;;;;;;13.21;62.81;99252.78;5052266;28;20190;-77
2023/12/21 10:51:54;;;;;;;14.23;8.48;;;;;;;13.02;62.96;99251.56;5033939;28;20047;-76
2023/12/21 10:54:22;;;;;;;12.47;8.03;;;;;;;13.35;60.41;99249.72;5051842;28;20124;-79
2023/12/21 10:56:48;;;;;;;12.18;7.78;;;;;;;13.49;61.30;99260.78;5051871;28;20031;-77
2023/12/21 10:59:14;;;;;;;13.10;7.93;;;;;;;13.78;60.23;99261.22;5051588;28;20068;-78
2023/12/21 11:01:40;;;;;;;12.43;7.75;;;;;;;13.77;59.31;99222.09;5051901;28;20060;-81
2023/12/21 11:04:08;;;;;;;12.65;8.00;;;;;;;13.66;59.28;99251.50;5051074;28;20032;-76
2023/12/21 11:06:36;;;;;;;12.20;6.97;;;;;;;13.56;58.07;99208.59;5051847;28;20044;-76
2023/12/21 11:09:06;;;;;;;14.90;7.53;;;;;;;13.79;57.03;99203.88;5036864;28;20089;-77